sensor_id;sensor_type;location;lat;lon;timestamp;temperature;humidity
2941;DHT22;1480;51.456;6.670;2022-10-17T00:02:23;17.40;99.90
2941;DHT22;1480;51.456;6.670;2022-10-17T00:04:50;17.40;99.90
2941;DHT22;1480;51.456;6.670;2022-10-17T00:07:17;17.40;99.90
2941;DHT22;1480;51.456;6.670;2022-10-17T00:09:44;17.50;99.90
2941;DHT22;1480;51.456;6.670;2022-10-17T00:12:12;17.40;99.90
2941;DHT22;1480;51.456;6.670;2022-10-17T00:14:39;17.50;99.90
2941;DHT22;1480;51.456;6.670;2022-10-17T00:17:06;17.40;99.90
2941;DHT22;1480;51.456;6.670;2022-10-17T00:19:34;17.40;99.90
2941;DHT22;1480;51.456;6.670;2022-10-17T00:22:02;17.40;99.90
2941;DHT22;1480;51.456;6.670;2022-10-17T00:24:29;17.40;99.90
2941;DHT22;1480;51.456;6.670;2022-10-17T00:26:57;17.50;99.90
2941;DHT22;1480;51.456;6.670;2022-10-17T00:29:26;17.40;99.90
2941;DHT22;1480;51.456;6.670;2022-10-17T00:31:54;17.50;99.90
2941;DHT22;1480;51.456;6.670;2022-10-17T00:34:21;17.50;99.90
2941;DHT22;1480;51.456;6.670;2022-10-17T00:36:50;17.60;99.90
2941;DHT22;1480;51.456;6.670;2022-10-17T00:39:25;17.60;99.90
2941;DHT22;1480;51.456;6.670;2022-10-17T00:41:52;17.60;99.90
2941;DHT22;1480;51.456;6.670;2022-10-17T00:45:05;17.60;99.90
2941;DHT22;1480;51.456;6.670;2022-10-17T00:47:33;17.60;99.90
2941;DHT22;1480;51.456;6.670;2022-10-17T00:50:02;17.70;99.90
2941;DHT22;1480;51.456;6.670;2022-10-17T00:52:31;17.60;99.90
2941;DHT22;1480;51.456;6.670;2022-10-17T00:55:01;17.70;99.90
2941;DHT22;1480;51.456;6.670;2022-10-17T00:57:30;17.70;99.90
2941;DHT22;1480;51.456;6.670;2022-10-17T00:59:58;17.80;99.90
2941;DHT22;1480;51.456;6.670;2022-10-17T01:02:29;17.80;99.90
2941;DHT22;1480;51.456;6.670;2022-10-17T01:04:56;17.80;99.90
2941;DHT22;1480;51.456;6.670;2022-10-17T01:07:24;17.80;99.90
2941;DHT22;1480;51.456;6.670;2022-10-17T01:09:52;17.80;99.90
2941;DHT22;1480;51.456;6.670;2022-10-17T01:12:22;17.90;99.90
2941;DHT22;1480;51.456;6.670;2022-10-17T01:15:00;17.80;99.90
2941;DHT22;1480;51.456;6.670;2022-10-17T01:17:36;17.80;99.90
2941;DHT22;1480;51.456;6.670;2022-10-17T01:20:36;17.90;99.90
2941;DHT22;1480;51.456;6.670;2022-10-17T01:23:26;17.90;99.90
2941;DHT22;1480;51.456;6.670;2022-10-17T01:26:03;17.90;99.90
2941;DHT22;1480;51.456;6.670;2022-10-17T01:28:54;17.90;99.90
2941;DHT22;1480;51.456;6.670;2022-10-17T01:31:32;17.90;99.90
2941;DHT22;1480;51.456;6.670;2022-10-17T01:34:05;17.90;99.90
2941;DHT22;1480;51.456;6.670;2022-10-17T01:36:39;17.80;99.90
2941;DHT22;1480;51.456;6.670;2022-10-17T01:39:15;18.00;99.90
2941;DHT22;1480;51.456;6.670;2022-10-17T01:41:49;18.00;99.90
2941;DHT22;1480;51.456;6.670;2022-10-17T01:44:19;17.90;99.90
2941;DHT22;1480;51.456;6.670;2022-10-17T01:46:51;18.00;99.90
2941;DHT22;1480;51.456;6.670;2022-10-17T01:49:23;18.00;99.90
2941;DHT22;1480;51.456;6.670;2022-10-17T01:51:55;18.00;99.90
2941;DHT22;1480;51.456;6.670;2022-10-17T01:54:26;17.90;99.90
2941;DHT22;1480;51.456;6.670;2022-10-17T01:56:58;17.90;99.90
2941;DHT22;1480;51.456;6.670;2022-10-17T01:59:30;17.80;99.90
2941;DHT22;1480;51.456;6.670;2022-10-17T02:02:02;18.00;99.90
2941;DHT22;1480;51.456;6.670;2022-10-17T02:04:30;17.90;99.90
2941;DHT22;1480;51.456;6.670;2022-10-17T02:06:59;17.90;99.90
2941;DHT22;1480;51.456;6.670;2022-10-17T02:09:31;17.90;99.90
2941;DHT22;1480;51.456;6.670;2022-10-17T02:12:25;17.80;99.90
2941;DHT22;1480;51.456;6.670;2022-10-17T02:15:03;17.80;99.90
2941;DHT22;1480;51.456;6.670;2022-10-17T02:17:41;17.80;99.90
2941;DHT22;1480;51.456;6.670;2022-10-17T02:20:19;17.70;99.90
2941;DHT22;1480;51.456;6.670;2022-10-17T02:22:53;17.70;99.90
2941;DHT22;1480;51.456;6.670;2022-10-17T02:25:29;17.80;99.90
2941;DHT22;1480;51.456;6.670;2022-10-17T02:28:02;17.80;99.90
2941;DHT22;1480;51.456;6.670;2022-10-17T02:30:35;17.70;99.90
2941;DHT22;1480;51.456;6.670;2022-10-17T02:33:10;17.70;99.90
2941;DHT22;1480;51.456;6.670;2022-10-17T02:35:42;17.70;99.90
2941;DHT22;1480;51.456;6.670;2022-10-17T02:38:12;17.70;99.90
2941;DHT22;1480;51.456;6.670;2022-10-17T02:40:42;17.70;99.90
2941;DHT22;1480;51.456;6.670;2022-10-17T02:43:10;17.70;99.90
2941;DHT22;1480;51.456;6.670;2022-10-17T02:45:39;17.70;99.90
2941;DHT22;1480;51.456;6.670;2022-10-17T02:48:11;17.70;99.90
2941;DHT22;1480;51.456;6.670;2022-10-17T02:50:48;17.80;99.90
2941;DHT22;1480;51.456;6.670;2022-10-17T02:53:24;17.80;99.90
2941;DHT22;1480;51.456;6.670;2022-10-17T02:55:57;17.80;99.90
2941;DHT22;1480;51.456;6.670;2022-10-17T02:58:30;17.80;99.90
2941;DHT22;1480;51.456;6.670;2022-10-17T03:01:00;17.80;99.90
2941;DHT22;1480;51.456;6.670;2022-10-17T03:03:30;17.80;99.90
2941;DHT22;1480;51.456;6.670;2022-10-17T03:06:01;17.80;99.90
2941;DHT22;1480;51.456;6.670;2022-10-17T03:08:28;17.80;99.90
2941;DHT22;1480;51.456;6.670;2022-10-17T03:10:55;17.90;99.90
2941;DHT22;1480;51.456;6.670;2022-10-17T03:13:23;17.90;99.90
2941;DHT22;1480;51.456;6.670;2022-10-17T03:15:50;17.90;99.90
2941;DHT22;1480;51.456;6.670;2022-10-17T03:18:17;17.90;99.90
2941;DHT22;1480;51.456;6.670;2022-10-17T03:20:47;17.90;99.90
2941;DHT22;1480;51.456;6.670;2022-10-17T03:23:15;17.80;99.90
2941;DHT22;1480;51.456;6.670;2022-10-17T03:25:42;17.80;99.90
2941;DHT22;1480;51.456;6.670;2022-10-17T03:28:10;17.90;99.90
2941;DHT22;1480;51.456;6.670;2022-10-17T03:30:38;18.00;99.90
2941;DHT22;1480;51.456;6.670;2022-10-17T03:33:05;17.90;99.90
2941;DHT22;1480;51.456;6.670;2022-10-17T03:35:32;18.10;99.90
2941;DHT22;1480;51.456;6.670;2022-10-17T03:38:01;18.10;99.90
2941;DHT22;1480;51.456;6.670;2022-10-17T03:40:28;18.20;99.90
2941;DHT22;1480;51.456;6.670;2022-10-17T03:42:55;18.10;99.90
2941;DHT22;1480;51.456;6.670;2022-10-17T03:45:23;18.20;99.90
2941;DHT22;1480;51.456;6.670;2022-10-17T03:47:51;18.30;99.50
2941;DHT22;1480;51.456;6.670;2022-10-17T03:50:18;18.30;99.70
2941;DHT22;1480;51.456;6.670;2022-10-17T03:52:46;18.20;99.50
2941;DHT22;1480;51.456;6.670;2022-10-17T03:55:15;18.30;99.40
2941;DHT22;1480;51.456;6.670;2022-10-17T03:57:42;18.30;99.20
2941;DHT22;1480;51.456;6.670;2022-10-17T04:00:11;18.30;99.30
2941;DHT22;1480;51.456;6.670;2022-10-17T04:02:41;18.30;99.10
2941;DHT22;1480;51.456;6.670;2022-10-17T04:05:15;18.20;99.00
2941;DHT22;1480;51.456;6.670;2022-10-17T04:07:42;18.30;98.80
2941;DHT22;1480;51.456;6.670;2022-10-17T04:10:10;18.30;98.80
2941;DHT22;1480;51.456;6.670;2022-10-17T04:12:39;18.30;98.50
2941;DHT22;1480;51.456;6.670;2022-10-17T04:15:07;18.30;98.60
2941;DHT22;1480;51.456;6.670;2022-10-17T04:17:35;18.20;98.40
2941;DHT22;1480;51.456;6.670;2022-10-17T04:20:02;18.30;98.50
2941;DHT22;1480;51.456;6.670;2022-10-17T04:22:29;18.40;98.40
2941;DHT22;1480;51.456;6.670;2022-10-17T04:24:56;18.30;98.50
2941;DHT22;1480;51.456;6.670;2022-10-17T04:27:29;18.30;98.40
2941;DHT22;1480;51.456;6.670;2022-10-17T04:29:58;18.20;98.70
2941;DHT22;1480;51.456;6.670;2022-10-17T04:32:25;18.20;98.60
2941;DHT22;1480;51.456;6.670;2022-10-17T04:34:57;18.20;99.00
2941;DHT22;1480;51.456;6.670;2022-10-17T04:37:28;18.20;98.50
2941;DHT22;1480;51.456;6.670;2022-10-17T04:39:55;18.30;98.60
2941;DHT22;1480;51.456;6.670;2022-10-17T04:42:22;18.20;98.70
2941;DHT22;1480;51.456;6.670;2022-10-17T04:44:52;18.20;98.50
2941;DHT22;1480;51.456;6.670;2022-10-17T04:47:22;18.30;98.50
2941;DHT22;1480;51.456;6.670;2022-10-17T04:49:50;18.30;98.40
2941;DHT22;1480;51.456;6.670;2022-10-17T04:52:20;18.20;98.40
2941;DHT22;1480;51.456;6.670;2022-10-17T04:54:49;18.30;98.10
2941;DHT22;1480;51.456;6.670;2022-10-17T04:57:17;18.40;97.70
2941;DHT22;1480;51.456;6.670;2022-10-17T04:59:55;18.40;98.10
2941;DHT22;1480;51.456;6.670;2022-10-17T05:03:11;18.50;97.60
2941;DHT22;1480;51.456;6.670;2022-10-17T05:05:49;18.60;97.20
2941;DHT22;1480;51.456;6.670;2022-10-17T05:08:16;18.40;97.40
2941;DHT22;1480;51.456;6.670;2022-10-17T05:10:44;18.50;97.40
2941;DHT22;1480;51.456;6.670;2022-10-17T05:13:12;18.50;97.30
2941;DHT22;1480;51.456;6.670;2022-10-17T05:15:40;18.60;97.10
2941;DHT22;1480;51.456;6.670;2022-10-17T05:18:07;18.50;97.10
2941;DHT22;1480;51.456;6.670;2022-10-17T05:20:36;18.70;96.70
2941;DHT22;1480;51.456;6.670;2022-10-17T05:23:05;18.70;96.40
2941;DHT22;1480;51.456;6.670;2022-10-17T05:25:37;18.60;96.80
2941;DHT22;1480;51.456;6.670;2022-10-17T05:28:04;18.70;96.70
2941;DHT22;1480;51.456;6.670;2022-10-17T05:30:32;18.70;95.90
2941;DHT22;1480;51.456;6.670;2022-10-17T05:33:00;18.60;96.50
2941;DHT22;1480;51.456;6.670;2022-10-17T05:35:30;18.60;96.30
2941;DHT22;1480;51.456;6.670;2022-10-17T05:37:58;18.60;96.10
2941;DHT22;1480;51.456;6.670;2022-10-17T05:40:27;18.60;95.90
2941;DHT22;1480;51.456;6.670;2022-10-17T05:42:53;18.60;96.40
2941;DHT22;1480;51.456;6.670;2022-10-17T05:45:22;18.60;96.30
2941;DHT22;1480;51.456;6.670;2022-10-17T05:47:49;18.50;96.40
2941;DHT22;1480;51.456;6.670;2022-10-17T05:50:17;18.50;96.20
2941;DHT22;1480;51.456;6.670;2022-10-17T05:53:03;18.50;96.60
2941;DHT22;1480;51.456;6.670;2022-10-17T05:55:35;18.60;96.30
2941;DHT22;1480;51.456;6.670;2022-10-17T05:58:03;18.50;96.30
2941;DHT22;1480;51.456;6.670;2022-10-17T06:00:34;18.50;96.20
2941;DHT22;1480;51.456;6.670;2022-10-17T06:03:01;18.50;96.00
2941;DHT22;1480;51.456;6.670;2022-10-17T06:05:29;18.40;95.90
2941;DHT22;1480;51.456;6.670;2022-10-17T06:07:56;18.50;95.70
2941;DHT22;1480;51.456;6.670;2022-10-17T06:10:25;18.50;96.00
2941;DHT22;1480;51.456;6.670;2022-10-17T06:12:53;18.50;95.80
2941;DHT22;1480;51.456;6.670;2022-10-17T06:15:21;18.50;95.80
2941;DHT22;1480;51.456;6.670;2022-10-17T06:17:55;18.60;95.50
2941;DHT22;1480;51.456;6.670;2022-10-17T06:20:24;18.60;95.30
2941;DHT22;1480;51.456;6.670;2022-10-17T06:22:51;18.60;94.80
2941;DHT22;1480;51.456;6.670;2022-10-17T06:25:32;18.70;94.80
2941;DHT22;1480;51.456;6.670;2022-10-17T06:27:59;18.70;94.60
2941;DHT22;1480;51.456;6.670;2022-10-17T06:30:27;18.70;94.50
2941;DHT22;1480;51.456;6.670;2022-10-17T06:32:54;18.70;94.60
2941;DHT22;1480;51.456;6.670;2022-10-17T06:35:21;18.70;94.70
2941;DHT22;1480;51.456;6.670;2022-10-17T06:37:52;18.70;94.60
2941;DHT22;1480;51.456;6.670;2022-10-17T06:40:21;18.80;94.30
2941;DHT22;1480;51.456;6.670;2022-10-17T06:42:49;18.80;94.00
2941;DHT22;1480;51.456;6.670;2022-10-17T06:45:46;18.80;93.70
2941;DHT22;1480;51.456;6.670;2022-10-17T06:48:16;18.90;93.50
2941;DHT22;1480;51.456;6.670;2022-10-17T06:51:03;18.90;93.60
2941;DHT22;1480;51.456;6.670;2022-10-17T06:53:39;18.90;93.50
2941;DHT22;1480;51.456;6.670;2022-10-17T06:56:27;18.80;93.70
2941;DHT22;1480;51.456;6.670;2022-10-17T06:58:55;18.90;93.10
2941;DHT22;1480;51.456;6.670;2022-10-17T07:01:27;19.00;93.10
2941;DHT22;1480;51.456;6.670;2022-10-17T07:03:57;19.00;93.10
2941;DHT22;1480;51.456;6.670;2022-10-17T07:06:24;19.10;92.70
2941;DHT22;1480;51.456;6.670;2022-10-17T07:08:54;19.10;93.00
2941;DHT22;1480;51.456;6.670;2022-10-17T07:11:22;19.10;92.90
2941;DHT22;1480;51.456;6.670;2022-10-17T07:13:51;19.10;92.70
2941;DHT22;1480;51.456;6.670;2022-10-17T07:16:20;19.20;92.10
2941;DHT22;1480;51.456;6.670;2022-10-17T07:18:54;19.20;91.90
2941;DHT22;1480;51.456;6.670;2022-10-17T07:21:22;19.30;91.60
2941;DHT22;1480;51.456;6.670;2022-10-17T07:23:50;19.30;91.00
2941;DHT22;1480;51.456;6.670;2022-10-17T07:26:20;19.40;91.00
2941;DHT22;1480;51.456;6.670;2022-10-17T07:28:51;19.40;90.70
2941;DHT22;1480;51.456;6.670;2022-10-17T07:31:32;19.50;90.70
2941;DHT22;1480;51.456;6.670;2022-10-17T07:34:01;19.50;90.50
2941;DHT22;1480;51.456;6.670;2022-10-17T07:36:58;19.60;90.20
2941;DHT22;1480;51.456;6.670;2022-10-17T07:39:26;19.70;89.70
2941;DHT22;1480;51.456;6.670;2022-10-17T07:41:57;19.70;89.30
2941;DHT22;1480;51.456;6.670;2022-10-17T07:44:24;19.70;88.80
2941;DHT22;1480;51.456;6.670;2022-10-17T07:46:54;19.80;88.90
2941;DHT22;1480;51.456;6.670;2022-10-17T07:49:22;19.70;88.50
2941;DHT22;1480;51.456;6.670;2022-10-17T07:51:51;19.90;88.90
2941;DHT22;1480;51.456;6.670;2022-10-17T07:54:19;19.80;88.50
2941;DHT22;1480;51.456;6.670;2022-10-17T07:56:46;19.90;88.00
2941;DHT22;1480;51.456;6.670;2022-10-17T07:59:15;20.00;88.00
2941;DHT22;1480;51.456;6.670;2022-10-17T08:01:42;20.10;87.50
2941;DHT22;1480;51.456;6.670;2022-10-17T08:04:11;20.30;87.10
2941;DHT22;1480;51.456;6.670;2022-10-17T08:06:38;20.40;86.80
2941;DHT22;1480;51.456;6.670;2022-10-17T08:09:05;20.60;86.40
2941;DHT22;1480;51.456;6.670;2022-10-17T08:11:32;20.60;85.80
2941;DHT22;1480;51.456;6.670;2022-10-17T08:14:07;20.60;85.50
2941;DHT22;1480;51.456;6.670;2022-10-17T08:16:34;20.80;85.70
2941;DHT22;1480;51.456;6.670;2022-10-17T08:19:01;20.90;84.40
2941;DHT22;1480;51.456;6.670;2022-10-17T08:21:31;20.90;83.30
2941;DHT22;1480;51.456;6.670;2022-10-17T08:23:58;21.00;83.10
2941;DHT22;1480;51.456;6.670;2022-10-17T08:26:27;21.10;83.00
2941;DHT22;1480;51.456;6.670;2022-10-17T08:28:54;21.10;83.10
2941;DHT22;1480;51.456;6.670;2022-10-17T08:31:21;21.20;83.10
2941;DHT22;1480;51.456;6.670;2022-10-17T08:33:51;21.30;82.20
2941;DHT22;1480;51.456;6.670;2022-10-17T08:36:19;21.20;82.10
2941;DHT22;1480;51.456;6.670;2022-10-17T08:38:47;21.10;82.60
2941;DHT22;1480;51.456;6.670;2022-10-17T08:41:27;21.30;82.90
2941;DHT22;1480;51.456;6.670;2022-10-17T08:44:05;21.30;81.90
2941;DHT22;1480;51.456;6.670;2022-10-17T08:46:39;21.50;82.20
2941;DHT22;1480;51.456;6.670;2022-10-17T08:49:13;21.60;81.20
2941;DHT22;1480;51.456;6.670;2022-10-17T08:52:06;21.60;80.80
2941;DHT22;1480;51.456;6.670;2022-10-17T08:54:40;21.70;80.70
2941;DHT22;1480;51.456;6.670;2022-10-17T08:57:11;21.60;81.10
2941;DHT22;1480;51.456;6.670;2022-10-17T08:59:39;21.50;81.00
2941;DHT22;1480;51.456;6.670;2022-10-17T09:02:26;21.50;81.20
2941;DHT22;1480;51.456;6.670;2022-10-17T09:08:16;21.50;80.60
2941;DHT22;1480;51.456;6.670;2022-10-17T09:11:11;21.50;80.60
2941;DHT22;1480;51.456;6.670;2022-10-17T09:13:48;21.40;80.20
2941;DHT22;1480;51.456;6.670;2022-10-17T09:16:34;21.50;80.80
2941;DHT22;1480;51.456;6.670;2022-10-17T09:19:08;21.50;80.80
2941;DHT22;1480;51.456;6.670;2022-10-17T09:21:41;21.50;80.90
2941;DHT22;1480;51.456;6.670;2022-10-17T09:24:14;21.70;81.80
2941;DHT22;1480;51.456;6.670;2022-10-17T09:26:45;21.60;80.50
2941;DHT22;1480;51.456;6.670;2022-10-17T09:29:20;21.70;80.60
2941;DHT22;1480;51.456;6.670;2022-10-17T09:31:53;21.70;80.20
2941;DHT22;1480;51.456;6.670;2022-10-17T09:34:27;21.50;80.50
2941;DHT22;1480;51.456;6.670;2022-10-17T09:37:02;21.50;81.80
2941;DHT22;1480;51.456;6.670;2022-10-17T09:39:44;21.40;81.60
2941;DHT22;1480;51.456;6.670;2022-10-17T09:42:16;21.40;81.50
2941;DHT22;1480;51.456;6.670;2022-10-17T09:45:18;21.40;81.20
2941;DHT22;1480;51.456;6.670;2022-10-17T09:47:56;21.30;81.30
2941;DHT22;1480;51.456;6.670;2022-10-17T09:50:27;21.30;81.80
2941;DHT22;1480;51.456;6.670;2022-10-17T09:52:56;21.20;81.60
2941;DHT22;1480;51.456;6.670;2022-10-17T09:55:30;21.20;81.60
2941;DHT22;1480;51.456;6.670;2022-10-17T09:58:02;21.20;82.10
2941;DHT22;1480;51.456;6.670;2022-10-17T10:00:31;21.10;82.40
2941;DHT22;1480;51.456;6.670;2022-10-17T10:03:09;21.10;82.30
2941;DHT22;1480;51.456;6.670;2022-10-17T10:05:37;21.10;82.70
2941;DHT22;1480;51.456;6.670;2022-10-17T10:08:13;21.10;82.30
2941;DHT22;1480;51.456;6.670;2022-10-17T10:10:40;21.00;82.40
2941;DHT22;1480;51.456;6.670;2022-10-17T10:13:18;20.90;82.80
2941;DHT22;1480;51.456;6.670;2022-10-17T10:15:47;20.90;83.10
2941;DHT22;1480;51.456;6.670;2022-10-17T10:18:33;20.90;83.40
2941;DHT22;1480;51.456;6.670;2022-10-17T10:21:13;20.90;83.50
2941;DHT22;1480;51.456;6.670;2022-10-17T10:23:41;21.00;83.60
2941;DHT22;1480;51.456;6.670;2022-10-17T10:26:23;21.10;84.20
2941;DHT22;1480;51.456;6.670;2022-10-17T10:28:58;21.00;84.20
2941;DHT22;1480;51.456;6.670;2022-10-17T10:31:30;21.00;84.30
2941;DHT22;1480;51.456;6.670;2022-10-17T10:34:00;21.20;83.90
2941;DHT22;1480;51.456;6.670;2022-10-17T10:36:47;21.20;83.20
2941;DHT22;1480;51.456;6.670;2022-10-17T10:39:38;21.30;83.40
2941;DHT22;1480;51.456;6.670;2022-10-17T10:42:19;21.30;83.50
2941;DHT22;1480;51.456;6.670;2022-10-17T10:44:49;21.30;83.80
2941;DHT22;1480;51.456;6.670;2022-10-17T10:47:31;21.40;83.40
2941;DHT22;1480;51.456;6.670;2022-10-17T10:53:16;21.30;83.80
2941;DHT22;1480;51.456;6.670;2022-10-17T10:55:49;21.10;83.60
2941;DHT22;1480;51.456;6.670;2022-10-17T10:58:52;21.10;83.80
2941;DHT22;1480;51.456;6.670;2022-10-17T11:01:43;21.00;84.40
2941;DHT22;1480;51.456;6.670;2022-10-17T11:04:26;21.00;85.40
2941;DHT22;1480;51.456;6.670;2022-10-17T11:06:59;21.00;84.40
2941;DHT22;1480;51.456;6.670;2022-10-17T11:09:44;21.00;84.50
2941;DHT22;1480;51.456;6.670;2022-10-17T11:12:26;20.90;85.50
2941;DHT22;1480;51.456;6.670;2022-10-17T11:15:01;20.80;88.10
2941;DHT22;1480;51.456;6.670;2022-10-17T11:17:41;20.70;89.80
2941;DHT22;1480;51.456;6.670;2022-10-17T11:20:19;20.40;91.60
2941;DHT22;1480;51.456;6.670;2022-10-17T11:22:54;20.30;93.00
2941;DHT22;1480;51.456;6.670;2022-10-17T11:25:33;20.20;94.10
2941;DHT22;1480;51.456;6.670;2022-10-17T11:28:02;20.10;94.30
2941;DHT22;1480;51.456;6.670;2022-10-17T11:30:52;20.10;94.90
2941;DHT22;1480;51.456;6.670;2022-10-17T11:33:27;20.00;95.70
2941;DHT22;1480;51.456;6.670;2022-10-17T11:36:01;20.10;96.10
2941;DHT22;1480;51.456;6.670;2022-10-17T11:38:38;20.10;96.80
2941;DHT22;1480;51.456;6.670;2022-10-17T11:41:12;20.10;97.80
2941;DHT22;1480;51.456;6.670;2022-10-17T11:43:42;20.20;97.30
2941;DHT22;1480;51.456;6.670;2022-10-17T11:46:14;20.20;97.30
2941;DHT22;1480;51.456;6.670;2022-10-17T11:48:54;20.30;97.00
2941;DHT22;1480;51.456;6.670;2022-10-17T11:51:23;20.40;96.90
2941;DHT22;1480;51.456;6.670;2022-10-17T11:53:53;20.40;96.30
2941;DHT22;1480;51.456;6.670;2022-10-17T11:56:26;20.40;96.30
2941;DHT22;1480;51.456;6.670;2022-10-17T11:59:04;20.30;96.10
2941;DHT22;1480;51.456;6.670;2022-10-17T12:01:39;20.40;96.20
2941;DHT22;1480;51.456;6.670;2022-10-17T12:04:24;20.30;96.30
2941;DHT22;1480;51.456;6.670;2022-10-17T12:07:04;20.30;95.70
2941;DHT22;1480;51.456;6.670;2022-10-17T12:09:40;20.30;96.10
2941;DHT22;1480;51.456;6.670;2022-10-17T12:12:23;20.30;95.90
2941;DHT22;1480;51.456;6.670;2022-10-17T12:14:50;20.30;95.40
2941;DHT22;1480;51.456;6.670;2022-10-17T12:17:27;20.30;96.10
2941;DHT22;1480;51.456;6.670;2022-10-17T12:20:17;20.30;96.50
2941;DHT22;1480;51.456;6.670;2022-10-17T12:22:50;20.30;96.50
2941;DHT22;1480;51.456;6.670;2022-10-17T12:25:20;20.20;96.90
2941;DHT22;1480;51.456;6.670;2022-10-17T12:27:48;20.10;96.90
2941;DHT22;1480;51.456;6.670;2022-10-17T12:30:21;20.20;97.20
2941;DHT22;1480;51.456;6.670;2022-10-17T12:32:58;20.20;98.10
2941;DHT22;1480;51.456;6.670;2022-10-17T12:35:28;20.10;97.80
2941;DHT22;1480;51.456;6.670;2022-10-17T12:38:14;20.20;97.70
2941;DHT22;1480;51.456;6.670;2022-10-17T12:40:56;20.20;97.60
2941;DHT22;1480;51.456;6.670;2022-10-17T12:46:45;20.20;97.30
2941;DHT22;1480;51.456;6.670;2022-10-17T12:49:21;20.20;96.40
2941;DHT22;1480;51.456;6.670;2022-10-17T12:52:18;20.10;96.40
2941;DHT22;1480;51.456;6.670;2022-10-17T12:54:50;20.20;96.40
2941;DHT22;1480;51.456;6.670;2022-10-17T12:57:21;20.30;95.90
2941;DHT22;1480;51.456;6.670;2022-10-17T12:59:49;20.20;95.60
2941;DHT22;1480;51.456;6.670;2022-10-17T13:02:19;20.20;95.40
2941;DHT22;1480;51.456;6.670;2022-10-17T13:04:48;20.30;94.90
2941;DHT22;1480;51.456;6.670;2022-10-17T13:07:19;20.30;94.80
2941;DHT22;1480;51.456;6.670;2022-10-17T13:09:47;20.40;94.60
2941;DHT22;1480;51.456;6.670;2022-10-17T13:12:18;20.60;94.50
2941;DHT22;1480;51.456;6.670;2022-10-17T13:14:47;20.60;94.90
2941;DHT22;1480;51.456;6.670;2022-10-17T13:17:24;20.60;94.30
2941;DHT22;1480;51.456;6.670;2022-10-17T13:19:52;20.50;94.20
2941;DHT22;1480;51.456;6.670;2022-10-17T13:22:23;20.60;94.50
2941;DHT22;1480;51.456;6.670;2022-10-17T13:24:51;20.50;94.40
2941;DHT22;1480;51.456;6.670;2022-10-17T13:27:24;20.50;95.90
2941;DHT22;1480;51.456;6.670;2022-10-17T13:29:53;20.60;94.20
2941;DHT22;1480;51.456;6.670;2022-10-17T13:32:23;20.50;94.40
2941;DHT22;1480;51.456;6.670;2022-10-17T13:35:08;20.50;93.70
2941;DHT22;1480;51.456;6.670;2022-10-17T13:37:38;20.40;94.20
2941;DHT22;1480;51.456;6.670;2022-10-17T13:40:14;20.50;94.60
2941;DHT22;1480;51.456;6.670;2022-10-17T13:42:42;20.40;95.30
2941;DHT22;1480;51.456;6.670;2022-10-17T13:45:16;20.50;94.00
2941;DHT22;1480;51.456;6.670;2022-10-17T13:47:45;20.40;95.40
2941;DHT22;1480;51.456;6.670;2022-10-17T13:50:20;20.50;95.50
2941;DHT22;1480;51.456;6.670;2022-10-17T13:53:05;20.50;95.00
2941;DHT22;1480;51.456;6.670;2022-10-17T13:55:35;20.60;94.80
2941;DHT22;1480;51.456;6.670;2022-10-17T13:58:09;20.60;95.80
2941;DHT22;1480;51.456;6.670;2022-10-17T14:00:40;20.50;94.80
2941;DHT22;1480;51.456;6.670;2022-10-17T14:03:07;20.60;95.80
2941;DHT22;1480;51.456;6.670;2022-10-17T14:05:34;20.70;95.40
2941;DHT22;1480;51.456;6.670;2022-10-17T14:08:03;20.70;94.80
2941;DHT22;1480;51.456;6.670;2022-10-17T14:10:32;20.80;94.10
2941;DHT22;1480;51.456;6.670;2022-10-17T14:13:00;20.80;93.30
2941;DHT22;1480;51.456;6.670;2022-10-17T14:15:30;20.80;93.80
2941;DHT22;1480;51.456;6.670;2022-10-17T14:17:58;20.80;93.40
2941;DHT22;1480;51.456;6.670;2022-10-17T14:20:26;20.70;93.70
2941;DHT22;1480;51.456;6.670;2022-10-17T14:22:57;20.70;93.20
2941;DHT22;1480;51.456;6.670;2022-10-17T14:25:28;20.80;93.20
2941;DHT22;1480;51.456;6.670;2022-10-17T14:28:01;20.70;93.10
2941;DHT22;1480;51.456;6.670;2022-10-17T14:30:35;20.70;92.90
2941;DHT22;1480;51.456;6.670;2022-10-17T14:33:06;20.70;93.00
2941;DHT22;1480;51.456;6.670;2022-10-17T14:35:34;20.70;93.30
2941;DHT22;1480;51.456;6.670;2022-10-17T14:38:02;20.60;92.40
2941;DHT22;1480;51.456;6.670;2022-10-17T14:40:32;20.70;92.30
2941;DHT22;1480;51.456;6.670;2022-10-17T14:43:03;20.70;92.70
2941;DHT22;1480;51.456;6.670;2022-10-17T14:45:34;20.70;92.30
2941;DHT22;1480;51.456;6.670;2022-10-17T14:48:03;20.60;92.90
2941;DHT22;1480;51.456;6.670;2022-10-17T14:50:33;20.60;92.40
2941;DHT22;1480;51.456;6.670;2022-10-17T14:53:03;20.50;93.00
2941;DHT22;1480;51.456;6.670;2022-10-17T14:55:34;20.60;92.90
2941;DHT22;1480;51.456;6.670;2022-10-17T14:58:01;20.50;92.90
2941;DHT22;1480;51.456;6.670;2022-10-17T15:00:40;20.50;92.80
2941;DHT22;1480;51.456;6.670;2022-10-17T15:03:07;20.60;93.00
2941;DHT22;1480;51.456;6.670;2022-10-17T15:05:34;20.60;93.10
2941;DHT22;1480;51.456;6.670;2022-10-17T15:08:01;20.60;93.30
2941;DHT22;1480;51.456;6.670;2022-10-17T15:10:33;20.50;93.40
2941;DHT22;1480;51.456;6.670;2022-10-17T15:13:00;20.50;94.20
2941;DHT22;1480;51.456;6.670;2022-10-17T15:15:28;20.50;94.50
2941;DHT22;1480;51.456;6.670;2022-10-17T15:17:56;20.40;95.00
2941;DHT22;1480;51.456;6.670;2022-10-17T15:20:24;20.30;95.90
2941;DHT22;1480;51.456;6.670;2022-10-17T15:22:53;20.20;95.60
2941;DHT22;1480;51.456;6.670;2022-10-17T15:25:20;20.30;95.70
2941;DHT22;1480;51.456;6.670;2022-10-17T15:27:48;20.30;96.00
2941;DHT22;1480;51.456;6.670;2022-10-17T15:30:18;20.30;96.20
2941;DHT22;1480;51.456;6.670;2022-10-17T15:32:46;20.20;96.60
2941;DHT22;1480;51.456;6.670;2022-10-17T15:35:13;20.10;97.00
2941;DHT22;1480;51.456;6.670;2022-10-17T15:37:40;20.10;97.20
2941;DHT22;1480;51.456;6.670;2022-10-17T15:40:13;20.10;97.00
2941;DHT22;1480;51.456;6.670;2022-10-17T15:42:40;20.00;97.30
2941;DHT22;1480;51.456;6.670;2022-10-17T15:45:10;20.10;97.40
2941;DHT22;1480;51.456;6.670;2022-10-17T15:47:37;20.00;97.70
2941;DHT22;1480;51.456;6.670;2022-10-17T15:50:05;20.00;97.40
2941;DHT22;1480;51.456;6.670;2022-10-17T15:52:33;20.00;97.90
2941;DHT22;1480;51.456;6.670;2022-10-17T15:55:01;20.00;97.70
2941;DHT22;1480;51.456;6.670;2022-10-17T15:57:29;20.00;98.30
2941;DHT22;1480;51.456;6.670;2022-10-17T15:59:58;19.90;98.60
2941;DHT22;1480;51.456;6.670;2022-10-17T16:02:27;19.80;98.80
2941;DHT22;1480;51.456;6.670;2022-10-17T16:04:54;19.70;99.10
2941;DHT22;1480;51.456;6.670;2022-10-17T16:07:21;19.70;99.40
2941;DHT22;1480;51.456;6.670;2022-10-17T16:09:47;19.70;99.40
2941;DHT22;1480;51.456;6.670;2022-10-17T16:12:17;19.60;99.70
2941;DHT22;1480;51.456;6.670;2022-10-17T16:20:18;19.50;99.40
2941;DHT22;1480;51.456;6.670;2022-10-17T16:22:45;19.40;99.40
2941;DHT22;1480;51.456;6.670;2022-10-17T16:25:17;19.40;99.40
2941;DHT22;1480;51.456;6.670;2022-10-17T16:27:44;19.40;99.70
2941;DHT22;1480;51.456;6.670;2022-10-17T16:30:12;19.40;99.80
2941;DHT22;1480;51.456;6.670;2022-10-17T16:32:39;19.40;99.90
2941;DHT22;1480;51.456;6.670;2022-10-17T16:35:06;19.40;99.90
2941;DHT22;1480;51.456;6.670;2022-10-17T16:37:35;19.40;99.90
2941;DHT22;1480;51.456;6.670;2022-10-17T16:40:02;19.30;99.60
2941;DHT22;1480;51.456;6.670;2022-10-17T16:42:29;19.40;99.90
2941;DHT22;1480;51.456;6.670;2022-10-17T16:44:56;19.30;99.90
2941;DHT22;1480;51.456;6.670;2022-10-17T16:47:23;19.30;99.90
2941;DHT22;1480;51.456;6.670;2022-10-17T16:49:49;19.30;99.90